Time;durP1;ratioP1;P1;durP2;ratioP2;P2;SDS_P1;SDS_P2;PMS_P1;PMS_P2;Temp;Humidity;BMP_temperature;BMP_pressure;BME280_temperature;BME280_humidity;BME280_pressure;Samples;Min_cycle;Max_cycle;Signal;HPM_P1;HPM_P2
2023/03/31 00:01:34;;;;;;;2.53;0.52;;;12.00;99.90;;;;;;5093536;28;20031;-74
2023/03/31 00:04:03;;;;;;;6.47;0.73;;;12.10;99.90;;;;;;5093789;28;20020;-73
2023/03/31 00:06:36;;;;;;;4.20;1.67;;;12.10;99.90;;;;;;5092008;28;20024;-73
2023/03/31 00:09:10;;;;;;;0.10;0.10;;;12.00;99.90;;;;;;5094038;28;20487;-75
2023/03/31 00:11:36;;;;;;;1.58;1.48;;;12.00;99.90;;;;;;5092066;28;20051;-74
2023/03/31 00:14:06;;;;;;;2.60;1.40;;;12.00;99.90;;;;;;5093621;28;20077;-74
2023/03/31 00:16:33;;;;;;;15.48;2.60;;;12.10;99.90;;;;;;5091793;28;20036;-74
2023/03/31 00:19:00;;;;;;;11.90;2.13;;;12.10;99.90;;;;;;5085004;28;20107;-74
2023/03/31 00:21:28;;;;;;;14.95;1.55;;;12.00;99.90;;;;;;5091323;28;20032;-75
2023/03/31 00:23:56;;;;;;;0.45;0.28;;;11.90;99.90;;;;;;5091957;28;20089;-74
2023/03/31 00:26:23;;;;;;;13.35;1.08;;;11.90;99.90;;;;;;5093391;28;20035;-75
2023/03/31 00:28:49;;;;;;;9.80;1.58;;;12.00;99.90;;;;;;5093149;28;20020;-74
2023/03/31 00:31:15;;;;;;;4.78;0.73;;;12.00;99.90;;;;;;5091607;28;20063;-75
2023/03/31 00:33:41;;;;;;;0.55;0.55;;;11.90;99.90;;;;;;5093226;28;20059;-75
2023/03/31 00:36:07;;;;;;;16.88;1.35;;;11.90;99.90;;;;;;5092975;28;20008;-75
2023/03/31 00:38:33;;;;;;;9.13;2.50;;;12.00;99.90;;;;;;5091687;28;20369;-75
2023/03/31 00:41:00;;;;;;;4.97;2.03;;;12.10;99.90;;;;;;5093492;28;20071;-75
2023/03/31 00:43:36;;;;;;;1.10;1.02;;;12.10;99.90;;;;;;5091915;28;20039;-76
2023/03/31 00:46:16;;;;;;;0.10;0.10;;;12.00;99.90;;;;;;5092692;28;20024;-75
2023/03/31 00:48:57;;;;;;;1.10;0.57;;;11.90;99.90;;;;;;5075033;28;20081;-75
2023/03/31 00:51:27;;;;;;;0.98;0.57;;;11.80;99.90;;;;;;5091228;28;20054;-75
2023/03/31 00:53:58;;;;;;;16.67;2.30;;;11.80;99.90;;;;;;5074918;28;20016;-75
2023/03/31 00:56:27;;;;;;;3.38;1.90;;;11.80;99.90;;;;;;5091327;28;20047;-75
2023/03/31 00:58:59;;;;;;;10.60;2.60;;;11.80;99.90;;;;;;5087162;28;20146;-75
2023/03/31 01:01:25;;;;;;;5.85;2.13;;;11.70;99.90;;;;;;5069901;28;20024;-75
2023/03/31 01:03:52;;;;;;;6.22;0.75;;;11.70;99.90;;;;;;5091560;28;20388;-74
2023/03/31 01:06:22;;;;;;;1.48;1.00;;;11.70;99.90;;;;;;5092707;28;20032;-74
2023/03/31 01:08:50;;;;;;;1.27;0.85;;;11.70;99.90;;;;;;5091453;28;20133;-75
2023/03/31 01:11:19;;;;;;;0.10;0.10;;;11.70;99.90;;;;;;5091492;28;20148;-74
2023/03/31 01:13:49;;;;;;;10.63;1.83;;;11.80;99.90;;;;;;5092566;28;20103;-75
2023/03/31 01:16:17;;;;;;;0.17;0.17;;;11.70;99.90;;;;;;5092356;28;20032;-75
2023/03/31 01:18:48;;;;;;;2.63;0.75;;;11.70;99.90;;;;;;5092782;28;20028;-75
2023/03/31 01:22:01;;;;;;;7.78;5.28;;;11.70;99.90;;;;;;5091430;28;20020;-75
2023/03/31 01:24:50;;;;;;;0.10;0.10;;;11.70;99.90;;;;;;5091403;28;20061;-75
2023/03/31 01:27:32;;;;;;;8.27;1.23;;;11.80;99.90;;;;;;5091076;28;20028;-74
2023/03/31 01:30:25;;;;;;;0.15;0.15;;;11.60;99.90;;;;;;5091208;28;20537;-75
2023/03/31 01:33:03;;;;;;;3.30;1.35;;;11.60;99.90;;;;;;5093999;28;20555;-75
2023/03/31 01:35:46;;;;;;;8.80;1.17;;;11.60;99.90;;;;;;5094951;28;20024;-75
2023/03/31 01:38:59;;;;;;;3.17;0.55;;;11.60;99.90;;;;;;5095111;28;20028;-75
2023/03/31 01:41:53;;;;;;;2.75;0.77;;;11.60;99.90;;;;;;5096456;28;20064;-76
2023/03/31 01:44:39;;;;;;;6.50;1.95;;;11.50;99.90;;;;;;5094786;28;20028;-75
2023/03/31 01:47:11;;;;;;;0.43;0.20;;;11.50;99.90;;;;;;5094757;28;20040;-75
2023/03/31 01:49:59;;;;;;;1.73;0.70;;;11.40;99.90;;;;;;5096108;28;20036;-75
2023/03/31 01:52:49;;;;;;;0.38;0.20;;;11.40;99.90;;;;;;5094807;28;20031;-75
2023/03/31 01:55:32;;;;;;;1.55;0.40;;;11.40;99.90;;;;;;5095052;28;20118;-75
2023/03/31 01:58:04;;;;;;;0.10;0.10;;;11.40;99.90;;;;;;5095682;28;20492;-75
2023/03/31 02:00:39;;;;;;;0.45;0.45;;;11.40;99.90;;;;;;5096313;28;20026;-75
2023/03/31 02:03:15;;;;;;;0.70;0.35;;;11.60;99.90;;;;;;5094490;28;20036;-75
2023/03/31 02:05:51;;;;;;;2.78;1.25;;;11.50;99.90;;;;;;5096102;28;20020;-75
2023/03/31 02:08:23;;;;;;;0.38;0.38;;;11.50;99.90;;;;;;5095723;28;20085;-75
2023/03/31 02:10:51;;;;;;;0.75;0.75;;;11.40;99.90;;;;;;5094634;28;20032;-73
2023/03/31 02:13:19;;;;;;;1.08;0.40;;;11.50;99.90;;;;;;5095340;28;20101;-73
2023/03/31 02:15:49;;;;;;;12.45;0.43;;;11.50;99.90;;;;;;5095995;28;20020;-74
2023/03/31 02:18:18;;;;;;;2.75;0.98;;;11.50;99.90;;;;;;5095580;28;20036;-74
2023/03/31 02:20:48;;;;;;;1.35;0.43;;;11.40;99.90;;;;;;5095794;28;20047;-73
2023/03/31 02:23:18;;;;;;;19.58;1.80;;;11.40;99.90;;;;;;5095458;28;20384;-72
2023/03/31 02:25:54;;;;;;;0.30;0.30;;;11.40;99.90;;;;;;5094182;28;20115;-73
2023/03/31 02:28:27;;;;;;;0.10;0.10;;;11.40;99.90;;;;;;5094089;28;20020;-74
2023/03/31 02:30:59;;;;;;;1.45;0.65;;;11.40;99.90;;;;;;5095704;28;20425;-73
2023/03/31 02:33:24;;;;;;;1.65;0.70;;;11.30;99.90;;;;;;5094200;28;20024;-72
2023/03/31 02:35:50;;;;;;;0.10;0.10;;;11.40;99.90;;;;;;5093897;28;20540;-74
2023/03/31 02:38:17;;;;;;;13.13;0.38;;;11.40;99.90;;;;;;5076981;28;20479;-74
2023/03/31 02:40:42;;;;;;;5.30;1.58;;;11.40;99.90;;;;;;5094207;28;20028;-72
2023/03/31 02:43:09;;;;;;;4.40;1.20;;;11.30;99.90;;;;;;5094089;28;20495;-73
2023/03/31 02:45:45;;;;;;;5.97;1.35;;;11.40;99.90;;;;;;5086687;28;20059;-74
2023/03/31 02:48:21;;;;;;;6.03;1.27;;;11.30;99.90;;;;;;5094818;28;20424;-75
2023/03/31 02:51:10;;;;;;;10.43;1.95;;;11.30;99.90;;;;;;5093783;28;20028;-72
2023/03/31 02:54:00;;;;;;;0.35;0.35;;;11.30;99.90;;;;;;5093675;28;20123;-73
2023/03/31 02:56:56;;;;;;;4.80;1.60;;;11.20;99.90;;;;;;5067038;28;20115;-74
2023/03/31 02:59:31;;;;;;;3.72;1.50;;;11.20;99.90;;;;;;5093504;28;20173;-74
2023/03/31 03:02:16;;;;;;;3.13;1.08;;;11.20;99.90;;;;;;5076795;28;20069;-74
2023/03/31 03:05:01;;;;;;;0.50;0.47;;;11.10;99.90;;;;;;5093297;28;20020;-75
2023/03/31 03:07:49;;;;;;;13.73;2.20;;;11.10;99.90;;;;;;5093505;28;20476;-75
2023/03/31 03:10:39;;;;;;;2.95;0.50;;;11.10;99.90;;;;;;5093046;28;20392;-75
2023/03/31 03:13:08;;;;;;;8.02;1.88;;;11.10;99.90;;;;;;5093354;28;20529;-75
2023/03/31 03:15:48;;;;;;;5.43;1.58;;;11.00;99.90;;;;;;5093225;28;20473;-75
2023/03/31 03:18:14;;;;;;;7.82;2.95;;;11.10;99.90;;;;;;5094524;28;20039;-74
2023/03/31 03:20:48;;;;;;;2.88;1.13;;;11.10;99.90;;;;;;5094707;28;20073;-75
2023/03/31 03:23:15;;;;;;;5.15;1.33;;;11.10;99.90;;;;;;5094437;28;20031;-75
2023/03/31 03:25:41;;;;;;;9.98;0.50;;;11.00;99.90;;;;;;5092828;28;20379;-75
2023/03/31 03:28:07;;;;;;;6.32;0.80;;;11.00;99.90;;;;;;5094245;28;20107;-75
2023/03/31 03:30:33;;;;;;;0.70;0.32;;;11.00;99.90;;;;;;5092971;28;20119;-74
2023/03/31 03:32:59;;;;;;;1.73;1.17;;;11.10;99.90;;;;;;5094471;28;20111;-74
2023/03/31 03:35:25;;;;;;;6.90;1.73;;;11.10;99.90;;;;;;5094146;28;20024;-74
2023/03/31 03:37:50;;;;;;;14.93;2.90;;;11.10;99.90;;;;;;5093936;28;20063;-75
2023/03/31 03:40:17;;;;;;;3.22;1.35;;;11.00;99.90;;;;;;5093819;28;20036;-76
2023/03/31 03:42:42;;;;;;;7.15;1.80;;;11.00;99.90;;;;;;5094090;28;20035;-76
2023/03/31 03:45:09;;;;;;;3.35;1.77;;;11.00;99.90;;;;;;5094013;28;20032;-75
2023/03/31 03:47:35;;;;;;;3.25;0.98;;;11.00;99.90;;;;;;5093826;28;20027;-75
2023/03/31 03:50:02;;;;;;;2.08;1.45;;;11.00;99.90;;;;;;5093986;28;20384;-75
2023/03/31 03:52:28;;;;;;;5.80;0.50;;;11.00;99.90;;;;;;5094236;28;20036;-75
2023/03/31 03:54:54;;;;;;;2.10;0.50;;;11.00;99.90;;;;;;5093335;28;20018;-75
2023/03/31 03:57:20;;;;;;;0.80;0.70;;;11.00;99.90;;;;;;5093797;28;20038;-75
2023/03/31 03:59:46;;;;;;;9.95;0.95;;;11.00;99.90;;;;;;5093630;28;20040;-74
2023/03/31 04:02:12;;;;;;;0.50;0.30;;;11.10;99.90;;;;;;5093976;28;20032;-75
2023/03/31 04:04:38;;;;;;;1.48;0.17;;;11.00;99.90;;;;;;5093207;28;20020;-75
2023/03/31 04:07:04;;;;;;;4.03;0.85;;;11.10;99.90;;;;;;5093746;28;20024;-75
2023/03/31 04:09:30;;;;;;;0.22;0.15;;;11.00;99.90;;;;;;5093081;28;20035;-74
2023/03/31 04:11:56;;;;;;;0.40;0.40;;;10.90;99.90;;;;;;5093246;28;20032;-74
2023/03/31 04:14:22;;;;;;;0.08;0.08;;;10.90;99.90;;;;;;5093369;28;20078;-73
2023/03/31 04:16:48;;;;;;;1.88;0.63;;;10.80;99.90;;;;;;5092099;28;20396;-74
2023/03/31 04:19:16;;;;;;;0.73;0.55;;;10.80;99.90;;;;;;5093442;28;20039;-74
2023/03/31 04:21:43;;;;;;;0.45;0.45;;;10.80;99.90;;;;;;5093275;28;20084;-74
2023/03/31 04:24:20;;;;;;;7.63;2.47;;;10.80;99.90;;;;;;5093110;28;20035;-74
2023/03/31 04:26:49;;;;;;;0.25;0.15;;;10.80;99.90;;;;;;5093138;28;20484;-75
2023/03/31 04:29:16;;;;;;;0.85;0.52;;;10.80;99.90;;;;;;5093333;28;20032;-75
2023/03/31 04:31:42;;;;;;;1.40;0.28;;;10.80;99.90;;;;;;5091677;28;20059;-74
2023/03/31 04:34:12;;;;;;;0.25;0.17;;;10.80;99.90;;;;;;5093297;28;20026;-75
2023/03/31 04:36:41;;;;;;;0.10;0.10;;;10.70;99.90;;;;;;5092901;28;20028;-75
2023/03/31 04:39:11;;;;;;;0.20;0.20;;;10.70;99.90;;;;;;5092740;28;20093;-73
2023/03/31 04:41:36;;;;;;;6.72;0.20;;;10.60;99.90;;;;;;5092773;28;20036;-77
2023/03/31 04:44:03;;;;;;;0.30;0.30;;;10.70;99.90;;;;;;5093126;28;20361;-77
2023/03/31 04:46:28;;;;;;;1.48;0.75;;;10.60;99.90;;;;;;5093009;28;20069;-77
2023/03/31 04:48:54;;;;;;;0.82;0.80;;;10.50;99.90;;;;;;5093000;28;20024;-77
2023/03/31 04:51:20;;;;;;;1.88;1.75;;;10.50;99.90;;;;;;5084205;28;20029;-77
2023/03/31 04:53:46;;;;;;;0.82;0.10;;;10.50;99.90;;;;;;5088097;28;20094;-74
2023/03/31 04:56:12;;;;;;;0.00;0.00;;;10.70;99.90;;;;;;5092748;28;20099;-75
2023/03/31 04:58:37;;;;;;;2.35;1.20;;;10.70;99.90;;;;;;5092766;28;20422;-75
2023/03/31 05:01:07;;;;;;;2.53;0.45;;;10.70;99.90;;;;;;5092819;28;20023;-77
2023/03/31 05:03:33;;;;;;;0.17;0.17;;;10.70;99.90;;;;;;5092889;28;20465;-77
2023/03/31 05:05:59;;;;;;;0.00;0.00;;;10.70;99.90;;;;;;5091948;28;20107;-78
2023/03/31 05:08:26;;;;;;;0.10;0.10;;;10.50;99.90;;;;;;5092607;28;20035;-78
2023/03/31 05:10:52;;;;;;;0.47;0.45;;;10.50;99.90;;;;;;5092483;28;20028;-78
2023/03/31 05:13:18;;;;;;;0.00;0.00;;;10.50;99.90;;;;;;5092865;28;20123;-78
2023/03/31 05:15:44;;;;;;;6.13;1.10;;;10.50;99.90;;;;;;5092675;28;20062;-78
2023/03/31 05:18:10;;;;;;;0.10;0.10;;;10.70;99.90;;;;;;5092715;28;20051;-77
2023/03/31 05:20:36;;;;;;;0.10;0.10;;;10.60;99.90;;;;;;5092428;28;20027;-75
2023/03/31 05:23:01;;;;;;;0.10;0.10;;;10.70;99.90;;;;;;5092388;28;20476;-76
2023/03/31 05:25:31;;;;;;;0.03;0.03;;;10.70;99.90;;;;;;5091557;28;20054;-77
2023/03/31 05:27:58;;;;;;;0.08;0.08;;;10.70;99.90;;;;;;5092395;28;20032;-77
2023/03/31 05:30:25;;;;;;;0.45;0.10;;;10.60;99.90;;;;;;5092594;28;20020;-77
2023/03/31 05:32:51;;;;;;;0.17;0.17;;;10.70;99.90;;;;;;5079486;28;20125;-75
2023/03/31 05:35:17;;;;;;;0.17;0.17;;;10.80;99.90;;;;;;5091733;28;20035;-76
2023/03/31 05:37:43;;;;;;;2.58;0.32;;;10.80;99.90;;;;;;5092222;28;20353;-77
2023/03/31 05:40:09;;;;;;;0.20;0.10;;;10.90;99.90;;;;;;5092330;28;20020;-76
2023/03/31 05:42:36;;;;;;;4.50;0.88;;;11.10;99.90;;;;;;5092134;28;20028;-74
2023/03/31 05:45:02;;;;;;;1.35;1.00;;;11.00;99.90;;;;;;5091766;28;20024;-76
2023/03/31 05:47:27;;;;;;;0.68;0.35;;;11.00;99.90;;;;;;5092237;28;20024;-76
2023/03/31 05:49:53;;;;;;;1.75;0.73;;;11.00;99.90;;;;;;5091798;28;20086;-75
2023/03/31 05:52:19;;;;;;;1.20;0.75;;;11.00;99.90;;;;;;5092137;28;20042;-77
2023/03/31 05:54:45;;;;;;;0.98;0.88;;;10.90;99.90;;;;;;5092263;28;20103;-76
2023/03/31 05:57:10;;;;;;;2.05;0.57;;;11.00;99.90;;;;;;5092204;28;20035;-76
2023/03/31 05:59:37;;;;;;;0.47;0.35;;;11.00;99.90;;;;;;5092457;28;20039;-77
2023/03/31 06:02:04;;;;;;;6.18;1.42;;;11.00;99.90;;;;;;5092282;28;20029;-76
2023/03/31 06:04:31;;;;;;;2.60;0.85;;;11.00;99.90;;;;;;5091808;28;20031;-77
2023/03/31 06:06:58;;;;;;;1.85;1.40;;;11.10;99.90;;;;;;5091117;28;20028;-76
2023/03/31 06:09:24;;;;;;;5.63;1.42;;;11.10;99.90;;;;;;5090699;28;20443;-77
2023/03/31 06:11:50;;;;;;;2.08;0.50;;;11.10;99.90;;;;;;5091970;28;20048;-76
2023/03/31 06:14:16;;;;;;;10.95;1.67;;;11.00;99.90;;;;;;5090800;28;20042;-76
2023/03/31 06:16:42;;;;;;;8.05;1.42;;;11.10;99.90;;;;;;5081084;28;20098;-76
2023/03/31 06:19:07;;;;;;;2.92;1.10;;;11.10;99.90;;;;;;5078400;28;20021;-77
2023/03/31 06:21:33;;;;;;;4.90;1.67;;;11.10;99.90;;;;;;5080323;28;20024;-78
2023/03/31 06:24:00;;;;;;;0.98;0.82;;;11.10;99.90;;;;;;5061973;28;20388;-77
2023/03/31 06:26:26;;;;;;;4.13;1.05;;;11.10;99.90;;;;;;5080671;28;20048;-77
2023/03/31 06:28:52;;;;;;;17.17;5.93;;;11.10;99.90;;;;;;5078418;28;20020;-78
2023/03/31 06:31:20;;;;;;;22.42;1.55;;;11.20;99.90;;;;;;5075593;28;20642;-75
2023/03/31 06:33:46;;;;;;;3.05;1.35;;;11.20;99.90;;;;;;5070504;28;20016;-77
2023/03/31 06:36:15;;;;;;;16.85;2.10;;;11.30;99.90;;;;;;5082002;28;20034;-76
2023/03/31 06:38:40;;;;;;;14.02;1.42;;;11.30;99.90;;;;;;5079870;28;20481;-76
2023/03/31 06:41:08;;;;;;;4.28;0.98;;;11.40;99.90;;;;;;5076460;28;20047;-76
2023/03/31 06:43:34;;;;;;;0.80;0.77;;;11.40;99.90;;;;;;5076944;28;20036;-75
2023/03/31 06:46:00;;;;;;;7.65;0.88;;;11.50;99.90;;;;;;5073757;28;20116;-77
2023/03/31 06:48:26;;;;;;;7.72;2.80;;;11.40;99.90;;;;;;5081076;28;20083;-76
2023/03/31 06:50:53;;;;;;;20.73;2.83;;;11.40;99.90;;;;;;5078979;28;20031;-78
2023/03/31 06:53:20;;;;;;;6.95;1.30;;;11.40;99.90;;;;;;5086656;28;20036;-75
2023/03/31 06:55:47;;;;;;;1.80;1.38;;;11.40;99.90;;;;;;5094067;28;20027;-76
2023/03/31 06:58:13;;;;;;;20.75;2.80;;;11.40;99.90;;;;;;5094855;28;20468;-75
2023/03/31 07:00:39;;;;;;;2.72;1.35;;;11.40;99.90;;;;;;5093274;28;20032;-76
2023/03/31 07:03:05;;;;;;;8.98;1.85;;;11.50;99.90;;;;;;5093845;28;20032;-75
2023/03/31 07:05:32;;;;;;;8.18;1.40;;;11.50;99.90;;;;;;5092734;28;20469;-76
2023/03/31 07:07:58;;;;;;;1.42;0.60;;;11.50;99.90;;;;;;5093683;28;20046;-75
2023/03/31 07:10:27;;;;;;;10.38;2.38;;;11.50;99.90;;;;;;5093913;28;20024;-75
2023/03/31 07:12:53;;;;;;;5.38;1.27;;;11.50;99.90;;;;;;5092702;28;20028;-75
2023/03/31 07:15:19;;;;;;;5.55;0.93;;;11.50;99.90;;;;;;5093803;28;20047;-73
2023/03/31 07:17:45;;;;;;;13.48;2.85;;;11.70;99.90;;;;;;5087874;28;20020;-75
2023/03/31 07:20:16;;;;;;;12.88;1.45;;;11.60;99.90;;;;;;5080948;28;20097;-75
2023/03/31 07:22:42;;;;;;;10.43;1.30;;;11.60;99.90;;;;;;5091054;28;20047;-74
2023/03/31 07:25:09;;;;;;;13.70;4.18;;;11.60;99.90;;;;;;5081161;28;20478;-76
2023/03/31 07:27:36;;;;;;;13.48;2.55;;;11.70;99.90;;;;;;5083967;28;20040;-73
2023/03/31 07:30:23;;;;;;;13.70;2.78;;;11.70;99.90;;;;;;5077265;28;20028;-73
2023/03/31 07:32:50;;;;;;;14.52;2.50;;;11.70;99.90;;;;;;5086124;28;20053;-73
2023/03/31 07:35:17;;;;;;;8.40;2.05;;;11.70;99.90;;;;;;5072979;28;20025;-74
2023/03/31 07:37:45;;;;;;;21.55;3.85;;;11.80;99.90;;;;;;5072703;28;20040;-71
2023/03/31 07:40:14;;;;;;;14.43;2.55;;;11.80;99.90;;;;;;5071677;28;20074;-72
2023/03/31 07:42:41;;;;;;;1.75;0.98;;;11.70;99.90;;;;;;5070947;28;20055;-71
2023/03/31 07:45:08;;;;;;;10.10;1.70;;;11.80;99.90;;;;;;5073370;28;20115;-72
2023/03/31 07:47:34;;;;;;;16.00;2.10;;;11.90;99.90;;;;;;5073466;28;20024;-72
2023/03/31 07:50:00;;;;;;;10.80;2.13;;;11.80;99.90;;;;;;5073465;28;20021;-71
2023/03/31 07:52:26;;;;;;;18.98;3.80;;;11.80;99.90;;;;;;5076446;28;20104;-72
2023/03/31 07:54:52;;;;;;;15.23;2.55;;;11.80;99.90;;;;;;5081968;28;20020;-72
2023/03/31 07:57:18;;;;;;;2.13;0.75;;;11.90;99.90;;;;;;5088733;28;20043;-73
2023/03/31 07:59:45;;;;;;;5.50;1.38;;;11.90;99.90;;;;;;5088892;28;20023;-72
2023/03/31 08:02:15;;;;;;;27.33;2.92;;;11.90;99.90;;;;;;5084946;28;20028;-73
2023/03/31 08:04:43;;;;;;;;;;;12.00;99.90;;;;;;5077441;28;20040;-73
2023/03/31 08:07:13;;;;;;;6.25;1.67;;;12.00;99.90;;;;;;5076005;28;19951;-73
2023/03/31 08:09:41;;;;;;;14.45;3.78;;;12.00;99.90;;;;;;5077403;28;20406;-73
2023/03/31 08:12:07;;;;;;;1.90;1.02;;;12.00;99.90;;;;;;5087511;28;20506;-73
2023/03/31 08:14:33;;;;;;;4.88;1.25;;;12.00;99.90;;;;;;5082665;28;20095;-73
2023/03/31 08:16:59;;;;;;;13.35;2.47;;;11.90;99.90;;;;;;5076219;28;20070;-73
2023/03/31 08:19:26;;;;;;;3.50;1.17;;;11.90;99.90;;;;;;5073707;28;20460;-73
2023/03/31 08:21:52;;;;;;;16.58;3.20;;;12.00;99.90;;;;;;5077299;28;20392;-73
2023/03/31 08:24:18;;;;;;;3.00;1.20;;;12.00;99.90;;;;;;5087078;28;20016;-75
2023/03/31 08:26:44;;;;;;;11.77;3.17;;;12.00;99.90;;;;;;5078879;28;20040;-73
2023/03/31 08:29:10;;;;;;;8.55;2.47;;;11.90;99.90;;;;;;5076714;28;20366;-73
2023/03/31 08:31:36;;;;;;;12.98;3.35;;;11.90;99.90;;;;;;5075476;28;20487;-73
2023/03/31 08:34:03;;;;;;;11.68;2.67;;;11.90;99.90;;;;;;5088294;28;20035;-74
2023/03/31 08:36:29;;;;;;;16.10;2.20;;;11.90;99.90;;;;;;5086400;28;20024;-74
2023/03/31 08:38:55;;;;;;;8.52;2.00;;;12.00;99.90;;;;;;5084247;28;20115;-71
2023/03/31 08:41:41;;;;;;;9.55;1.50;;;12.10;99.90;;;;;;5057470;28;20039;-71
2023/03/31 08:44:22;;;;;;;10.98;5.45;;;12.30;99.90;;;;;;5066704;28;20032;-73
2023/03/31 08:46:51;;;;;;;3.92;1.77;;;12.30;99.90;;;;;;5070285;28;20033;-75
2023/03/31 08:49:19;;;;;;;2.15;1.50;;;12.40;99.90;;;;;;5064646;28;20017;-74
2023/03/31 08:52:11;;;;;;;7.45;1.65;;;12.50;99.90;;;;;;5077360;28;20484;-70
2023/03/31 08:54:42;;;;;;;6.55;1.55;;;12.40;99.90;;;;;;5070865;28;20515;-72
2023/03/31 08:57:37;;;;;;;1.98;0.90;;;12.30;99.90;;;;;;5084599;28;20434;-78
2023/03/31 09:00:05;;;;;;;49.13;2.60;;;12.50;99.90;;;;;;5065605;28;20032;-78
2023/03/31 09:02:51;;;;;;;3.63;1.02;;;12.60;99.90;;;;;;5082327;28;20484;-79
2023/03/31 09:05:24;;;;;;;13.98;1.65;;;12.60;99.90;;;;;;5077151;28;20116;-78
2023/03/31 09:08:15;;;;;;;14.82;2.35;;;12.50;99.90;;;;;;5072924;28;20107;-79
2023/03/31 09:10:55;;;;;;;13.18;2.42;;;12.50;99.90;;;;;;5083480;28;20039;-78
2023/03/31 09:13:54;;;;;;;10.52;3.05;;;12.50;99.90;;;;;;5079192;28;20035;-77
2023/03/31 09:16:50;;;;;;;8.20;2.92;;;12.50;99.90;;;;;;5076810;28;20021;-78
2023/03/31 09:19:27;;;;;;;25.33;3.17;;;12.50;99.90;;;;;;5073693;28;20063;-77
2023/03/31 09:21:55;;;;;;;10.30;2.85;;;12.40;99.90;;;;;;5065068;28;20024;-78
2023/03/31 09:24:30;;;;;;;11.65;2.15;;;12.40;99.90;;;;;;5079899;28;20056;-78
2023/03/31 09:27:05;;;;;;;8.57;1.33;;;12.30;99.90;;;;;;5077420;28;20048;-77
2023/03/31 09:29:42;;;;;;;5.82;1.20;;;12.30;99.90;;;;;;5074990;28;20051;-73
2023/03/31 09:32:38;;;;;;;25.55;1.20;;;12.30;99.90;;;;;;5077462;28;20036;-73
2023/03/31 09:35:24;;;;;;;14.00;2.05;;;12.30;99.90;;;;;;5082705;28;20032;-72
2023/03/31 09:37:52;;;;;;;14.45;2.03;;;12.20;99.90;;;;;;5069714;28;20036;-73
2023/03/31 09:40:21;;;;;;;14.85;2.33;;;12.10;99.90;;;;;;5074097;28;20086;-72
2023/03/31 09:42:55;;;;;;;16.23;2.80;;;12.00;99.90;;;;;;5070179;28;20025;-72
2023/03/31 09:45:21;;;;;;;9.38;2.13;;;12.10;99.90;;;;;;5082629;28;20442;-73
2023/03/31 09:47:51;;;;;;;9.82;1.17;;;12.10;99.90;;;;;;5084257;28;20020;-74
2023/03/31 09:50:17;;;;;;;6.53;1.95;;;12.10;99.90;;;;;;5072212;28;20400;-73
2023/03/31 09:52:51;;;;;;;17.88;2.20;;;12.10;99.90;;;;;;5074222;28;20033;-73
2023/03/31 09:55:24;;;;;;;8.52;2.75;;;12.20;99.90;;;;;;5081887;28;20071;-72
2023/03/31 09:57:49;;;;;;;17.02;2.55;;;12.30;99.90;;;;;;5093597;28;20118;-72
2023/03/31 10:00:19;;;;;;;4.50;1.25;;;12.40;99.90;;;;;;5094213;28;20536;-73
2023/03/31 10:02:50;;;;;;;2.58;1.30;;;12.30;99.90;;;;;;5094679;28;20027;-74
2023/03/31 10:05:28;;;;;;;15.90;4.10;;;12.40;99.90;;;;;;5087626;28;20051;-77
2023/03/31 10:08:18;;;;;;;1.75;1.60;;;12.50;99.90;;;;;;5092089;28;20428;-76
2023/03/31 10:10:56;;;;;;;13.38;2.35;;;12.40;99.90;;;;;;5095776;28;20085;-73
2023/03/31 10:13:28;;;;;;;23.92;4.57;;;12.30;99.90;;;;;;5096318;28;20051;-73
2023/03/31 10:16:00;;;;;;;;;;;12.20;99.90;;;;;;5096324;28;20035;-77
2023/03/31 10:18:37;;;;;;;1.20;0.77;;;12.30;99.90;;;;;;5095489;28;20055;-77
2023/03/31 10:21:06;;;;;;;8.10;2.03;;;12.30;99.90;;;;;;5094514;28;20089;-77
2023/03/31 10:23:34;;;;;;;10.88;1.75;;;12.30;99.90;;;;;;5095903;28;20024;-77
2023/03/31 10:26:01;;;;;;;14.60;2.45;;;12.30;99.90;;;;;;5094186;28;20114;-76
2023/03/31 10:28:32;;;;;;;6.22;1.88;;;12.30;99.90;;;;;;5095536;28;20043;-77
2023/03/31 10:31:02;;;;;;;17.00;4.65;;;12.30;99.90;;;;;;5094216;28;20040;-76
2023/03/31 10:33:36;;;;;;;13.57;3.47;;;12.20;99.90;;;;;;5095247;28;20494;-76
2023/03/31 10:36:11;;;;;;;17.08;3.58;;;12.20;99.90;;;;;;5095455;28;20205;-75
2023/03/31 10:38:41;;;;;;;9.35;4.45;;;12.30;99.90;;;;;;5094951;28;20040;-76
2023/03/31 10:41:08;;;;;;;15.80;3.03;;;12.40;99.90;;;;;;5093786;28;20533;-74
2023/03/31 10:43:40;;;;;;;9.98;1.98;;;12.50;99.90;;;;;;5094991;28;20384;-76
2023/03/31 10:46:06;;;;;;;15.52;1.80;;;12.50;99.90;;;;;;5094234;28;20052;-73
2023/03/31 10:48:37;;;;;;;2.25;0.70;;;12.60;99.90;;;;;;5076682;28;20146;-74
2023/03/31 10:51:12;;;;;;;9.35;2.40;;;12.60;99.90;;;;;;5075187;28;20433;-75
2023/03/31 10:53:46;;;;;;;5.75;1.52;;;12.50;99.90;;;;;;5036870;28;20041;-75
2023/03/31 10:56:18;;;;;;;8.45;2.17;;;12.50;99.90;;;;;;5065959;28;20357;-75
2023/03/31 10:59:19;;;;;;;15.18;2.65;;;12.40;99.90;;;;;;5093842;28;20539;-75
2023/03/31 11:02:19;;;;;;;6.30;1.35;;;12.30;99.90;;;;;;5076156;28;20050;-75
2023/03/31 11:05:11;;;;;;;6.13;1.05;;;12.30;99.90;;;;;;5092500;28;20107;-74
2023/03/31 11:07:43;;;;;;;10.50;2.35;;;12.30;99.90;;;;;;5094594;28;20028;-75
2023/03/31 11:10:37;;;;;;;12.63;2.83;;;12.30;99.90;;;;;;5078106;28;20399;-75
2023/03/31 11:13:14;;;;;;;5.07;1.58;;;12.10;99.90;;;;;;5078157;28;20374;-75
2023/03/31 11:15:46;;;;;;;17.73;2.63;;;11.90;99.90;;;;;;5075346;28;20384;-75
2023/03/31 11:18:31;;;;;;;13.38;3.28;;;11.80;99.90;;;;;;5085819;28;20020;-74
2023/03/31 11:21:15;;;;;;;5.28;1.35;;;12.00;99.90;;;;;;5081201;28;20035;-74
2023/03/31 11:23:46;;;;;;;6.70;1.40;;;12.10;99.90;;;;;;5075837;28;20039;-74
2023/03/31 11:26:33;;;;;;;7.82;1.85;;;12.00;99.90;;;;;;5075114;28;20032;-75
2023/03/31 11:29:33;;;;;;;3.65;1.20;;;12.00;99.90;;;;;;5080730;28;20400;-72
2023/03/31 11:32:23;;;;;;;16.05;1.95;;;12.00;99.90;;;;;;5081750;28;20052;-72
2023/03/31 11:35:06;;;;;;;13.73;1.60;;;12.00;99.90;;;;;;5075285;28;20029;-72
2023/03/31 11:37:46;;;;;;;0.52;0.43;;;12.10;99.90;;;;;;5074774;28;20034;-72
2023/03/31 11:40:20;;;;;;;5.05;1.23;;;12.20;99.90;;;;;;5074168;28;20025;-73
2023/03/31 11:42:49;;;;;;;5.30;1.00;;;12.20;99.90;;;;;;5084383;28;20036;-75
2023/03/31 11:45:20;;;;;;;4.28;1.83;;;12.30;99.90;;;;;;5075201;28;20075;-73
2023/03/31 11:47:51;;;;;;;11.07;2.00;;;12.40;99.90;;;;;;5073917;28;20028;-73
2023/03/31 11:50:24;;;;;;;11.32;2.38;;;12.30;99.90;;;;;;5077931;28;20090;-74
2023/03/31 11:53:04;;;;;;;7.85;1.30;;;12.40;99.90;;;;;;5084558;28;20036;-75
2023/03/31 11:55:31;;;;;;;2.65;1.25;;;12.40;99.90;;;;;;5091768;28;20031;-75
2023/03/31 11:58:01;;;;;;;7.18;0.70;;;12.30;99.90;;;;;;5088843;28;20021;-75
2023/03/31 12:01:11;;;;;;;1.77;0.90;;;12.20;99.90;;;;;;5093111;28;20138;-76
2023/03/31 12:03:59;;;;;;;2.83;1.15;;;12.00;99.90;;;;;;5084815;28;20173;-76
2023/03/31 12:06:32;;;;;;;7.13;1.98;;;11.90;99.90;;;;;;5062038;28;20614;-75
2023/03/31 12:09:01;;;;;;;1.55;0.70;;;12.00;99.90;;;;;;5070858;28;20443;-75
2023/03/31 12:12:18;;;;;;;14.95;2.70;;;11.90;99.90;;;;;;5064561;28;20424;-75
2023/03/31 12:14:56;;;;;;;6.30;1.33;;;11.80;99.90;;;;;;5067861;28;20036;-76
2023/03/31 12:17:31;;;;;;;7.57;2.03;;;11.80;99.90;;;;;;5071078;28;20025;-76
2023/03/31 12:20:07;;;;;;;4.25;1.25;;;11.80;99.90;;;;;;5071059;28;20568;-75
2023/03/31 12:22:38;;;;;;;12.30;2.40;;;11.60;99.90;;;;;;5072475;28;20028;-76
2023/03/31 12:25:05;;;;;;;12.52;2.03;;;11.70;99.90;;;;;;5072970;28;20029;-75
2023/03/31 12:27:42;;;;;;;1.95;0.73;;;11.60;99.90;;;;;;5072336;28;20047;-76
2023/03/31 12:30:13;;;;;;;0.80;0.70;;;11.80;99.90;;;;;;5071178;28;20029;-75
2023/03/31 12:32:48;;;;;;;0.40;0.40;;;11.80;99.90;;;;;;5072837;28;20040;-75
2023/03/31 12:35:26;;;;;;;13.52;1.90;;;11.80;99.90;;;;;;5072874;28;20021;-75
2023/03/31 12:38:01;;;;;;;1.67;0.45;;;11.70;99.90;;;;;;5072698;28;20473;-76
2023/03/31 12:40:35;;;;;;;6.95;1.65;;;11.80;99.90;;;;;;5072693;28;20040;-75
2023/03/31 12:43:34;;;;;;;7.30;1.50;;;11.70;99.90;;;;;;5065049;28;20112;-75
2023/03/31 12:46:17;;;;;;;0.90;0.57;;;11.80;99.90;;;;;;5062695;28;20032;-75
2023/03/31 12:49:25;;;;;;;5.68;0.90;;;12.00;99.90;;;;;;5072507;28;20032;-75
2023/03/31 12:52:19;;;;;;;0.80;0.50;;;12.10;99.90;;;;;;5070946;28;20036;-75
2023/03/31 12:55:08;;;;;;;2.85;0.88;;;12.30;99.90;;;;;;5068623;28;20058;-75
2023/03/31 12:57:34;;;;;;;2.00;0.93;;;12.20;99.90;;;;;;5092829;28;20032;-75
2023/03/31 13:00:19;;;;;;;7.13;0.82;;;12.20;99.90;;;;;;5093013;28;20077;-72
2023/03/31 13:02:46;;;;;;;4.78;0.70;;;12.30;99.90;;;;;;5092560;28;20035;-73
2023/03/31 13:05:33;;;;;;;0.10;0.10;;;12.20;99.90;;;;;;5092585;28;20032;-73
2023/03/31 13:07:59;;;;;;;1.70;0.52;;;12.30;99.90;;;;;;5091414;28;20491;-75
2023/03/31 13:10:29;;;;;;;3.00;0.88;;;12.40;99.90;;;;;;5092788;28;20040;-76
2023/03/31 13:13:11;;;;;;;2.83;1.23;;;12.40;99.90;;;;;;5092659;28;20031;-73